sensor_id;sensor_type;location;lat;lon;timestamp;temperature;humidity
70867;HTU21D;58487;53.474;49.470;2023-11-22T00:01:32;-2.52;118.99
70867;HTU21D;58487;53.474;49.470;2023-11-22T00:03:59;-2.63;118.99
70867;HTU21D;58487;53.474;49.470;2023-11-22T00:06:26;-2.79;118.99
70867;HTU21D;58487;53.474;49.470;2023-11-22T00:08:53;-2.78;118.99
70867;HTU21D;58487;53.474;49.470;2023-11-22T00:11:19;-2.81;118.99
70867;HTU21D;58487;53.474;49.470;2023-11-22T00:13:45;-2.59;118.99
70867;HTU21D;58487;53.474;49.470;2023-11-22T00:16:11;-2.82;118.99
70867;HTU21D;58487;53.474;49.470;2023-11-22T00:18:38;-2.74;96.80
70867;HTU21D;58487;53.474;49.470;2023-11-22T00:21:04;-2.79;107.46
70867;HTU21D;58487;53.474;49.470;2023-11-22T00:23:31;-2.90;118.99
70867;HTU21D;58487;53.474;49.470;2023-11-22T00:25:57;-2.86;118.99
70867;HTU21D;58487;53.474;49.470;2023-11-22T00:28:23;-2.69;118.99
70867;HTU21D;58487;53.474;49.470;2023-11-22T00:30:50;-2.71;92.98
70867;HTU21D;58487;53.474;49.470;2023-11-22T00:33:16;-2.82;118.10
70867;HTU21D;58487;53.474;49.470;2023-11-22T00:35:44;-2.94;118.99
70867;HTU21D;58487;53.474;49.470;2023-11-22T00:38:10;-2.91;118.99
70867;HTU21D;58487;53.474;49.470;2023-11-22T00:40:36;-2.76;98.86
70867;HTU21D;58487;53.474;49.470;2023-11-22T00:43:02;-3.27;118.99
70867;HTU21D;58487;53.474;49.470;2023-11-22T00:45:28;-3.30;118.99
70867;HTU21D;58487;53.474;49.470;2023-11-22T00:47:55;-3.28;118.99
70867;HTU21D;58487;53.474;49.470;2023-11-22T00:50:22;-3.25;118.99
70867;HTU21D;58487;53.474;49.470;2023-11-22T00:52:48;-3.24;118.99
70867;HTU21D;58487;53.474;49.470;2023-11-22T00:55:15;-3.30;118.99
70867;HTU21D;58487;53.474;49.470;2023-11-22T00:57:41;-3.41;118.99
70867;HTU21D;58487;53.474;49.470;2023-11-22T01:00:08;-3.40;118.99
70867;HTU21D;58487;53.474;49.470;2023-11-22T01:02:38;-3.47;118.99
70867;HTU21D;58487;53.474;49.470;2023-11-22T01:05:07;-3.55;118.99
70867;HTU21D;58487;53.474;49.470;2023-11-22T01:07:43;-3.38;118.99
70867;HTU21D;58487;53.474;49.470;2023-11-22T01:10:09;-3.62;118.99
70867;HTU21D;58487;53.474;49.470;2023-11-22T01:12:35;-3.68;118.99
70867;HTU21D;58487;53.474;49.470;2023-11-22T01:15:02;-3.85;118.99
70867;HTU21D;58487;53.474;49.470;2023-11-22T01:17:28;-3.67;118.99
70867;HTU21D;58487;53.474;49.470;2023-11-22T01:19:54;-3.70;118.99
70867;HTU21D;58487;53.474;49.470;2023-11-22T01:22:19;-3.63;118.99
70867;HTU21D;58487;53.474;49.470;2023-11-22T01:24:45;-3.71;118.99
70867;HTU21D;58487;53.474;49.470;2023-11-22T01:27:11;-3.67;118.99
70867;HTU21D;58487;53.474;49.470;2023-11-22T01:29:37;-3.75;118.99
70867;HTU21D;58487;53.474;49.470;2023-11-22T01:32:03;-3.72;118.99
70867;HTU21D;58487;53.474;49.470;2023-11-22T01:34:30;-3.71;118.99
70867;HTU21D;58487;53.474;49.470;2023-11-22T01:36:56;-3.65;118.99
70867;HTU21D;58487;53.474;49.470;2023-11-22T01:39:22;-3.71;118.99
70867;HTU21D;58487;53.474;49.470;2023-11-22T01:41:48;-3.67;118.99
70867;HTU21D;58487;53.474;49.470;2023-11-22T01:44:16;-3.66;118.99
70867;HTU21D;58487;53.474;49.470;2023-11-22T01:46:42;-3.66;118.99
70867;HTU21D;58487;53.474;49.470;2023-11-22T01:49:09;-3.62;118.99
70867;HTU21D;58487;53.474;49.470;2023-11-22T01:51:40;-3.66;118.99
70867;HTU21D;58487;53.474;49.470;2023-11-22T01:54:08;-3.71;118.99
70867;HTU21D;58487;53.474;49.470;2023-11-22T01:56:35;-3.74;118.99
70867;HTU21D;58487;53.474;49.470;2023-11-22T01:59:03;-3.74;118.99
70867;HTU21D;58487;53.474;49.470;2023-11-22T02:01:30;-3.72;118.99
70867;HTU21D;58487;53.474;49.470;2023-11-22T02:03:57;-3.78;118.99
70867;HTU21D;58487;53.474;49.470;2023-11-22T02:06:24;-3.70;118.99
70867;HTU21D;58487;53.474;49.470;2023-11-22T02:08:51;-3.76;118.99
70867;HTU21D;58487;53.474;49.470;2023-11-22T02:11:18;-3.69;118.99
70867;HTU21D;58487;53.474;49.470;2023-11-22T02:13:51;-3.83;118.99
70867;HTU21D;58487;53.474;49.470;2023-11-22T02:16:18;-3.68;118.99
70867;HTU21D;58487;53.474;49.470;2023-11-22T02:18:48;-3.49;113.29
70867;HTU21D;58487;53.474;49.470;2023-11-22T02:21:17;-3.82;118.99
70867;HTU21D;58487;53.474;49.470;2023-11-22T02:23:43;-4.19;118.99
70867;HTU21D;58487;53.474;49.470;2023-11-22T02:26:09;-4.11;112.41
70867;HTU21D;58487;53.474;49.470;2023-11-22T02:28:35;-4.05;101.03
70867;HTU21D;58487;53.474;49.470;2023-11-22T02:31:01;-3.95;118.99
70867;HTU21D;58487;53.474;49.470;2023-11-22T02:33:29;-4.24;118.99
70867;HTU21D;58487;53.474;49.470;2023-11-22T02:35:55;-4.26;118.99
70867;HTU21D;58487;53.474;49.470;2023-11-22T02:38:22;-4.16;118.99
70867;HTU21D;58487;53.474;49.470;2023-11-22T02:40:48;-3.85;118.99
70867;HTU21D;58487;53.474;49.470;2023-11-22T02:43:16;-4.24;118.99
70867;HTU21D;58487;53.474;49.470;2023-11-22T02:45:43;-4.12;118.99
70867;HTU21D;58487;53.474;49.470;2023-11-22T02:48:09;-3.95;118.99
70867;HTU21D;58487;53.474;49.470;2023-11-22T02:50:36;-4.07;113.20
70867;HTU21D;58487;53.474;49.470;2023-11-22T02:53:05;-4.02;118.99
70867;HTU21D;58487;53.474;49.470;2023-11-22T02:55:31;-3.90;118.99
70867;HTU21D;58487;53.474;49.470;2023-11-22T02:57:57;-4.28;118.99
70867;HTU21D;58487;53.474;49.470;2023-11-22T03:00:24;-4.05;118.99
70867;HTU21D;58487;53.474;49.470;2023-11-22T03:02:51;-4.08;118.99
70867;HTU21D;58487;53.474;49.470;2023-11-22T03:05:20;-4.29;118.99
70867;HTU21D;58487;53.474;49.470;2023-11-22T03:07:47;-4.39;118.99
70867;HTU21D;58487;53.474;49.470;2023-11-22T03:10:13;-4.27;118.99
70867;HTU21D;58487;53.474;49.470;2023-11-22T03:12:40;-4.28;118.99
70867;HTU21D;58487;53.474;49.470;2023-11-22T03:15:06;-4.30;118.99
70867;HTU21D;58487;53.474;49.470;2023-11-22T03:17:33;-4.17;118.99
70867;HTU21D;58487;53.474;49.470;2023-11-22T03:19:59;-4.23;118.99
70867;HTU21D;58487;53.474;49.470;2023-11-22T03:22:27;-4.49;118.99
70867;HTU21D;58487;53.474;49.470;2023-11-22T03:24:56;-4.28;118.99
70867;HTU21D;58487;53.474;49.470;2023-11-22T03:27:24;-4.26;118.99
70867;HTU21D;58487;53.474;49.470;2023-11-22T03:29:51;-4.17;118.99
70867;HTU21D;58487;53.474;49.470;2023-11-22T03:32:17;-4.46;118.99
70867;HTU21D;58487;53.474;49.470;2023-11-22T03:34:43;-4.53;118.99
70867;HTU21D;58487;53.474;49.470;2023-11-22T03:37:10;-4.60;118.99
70867;HTU21D;58487;53.474;49.470;2023-11-22T03:39:37;-4.45;118.99
70867;HTU21D;58487;53.474;49.470;2023-11-22T03:42:03;-4.30;118.99
70867;HTU21D;58487;53.474;49.470;2023-11-22T03:44:30;-4.28;118.99
70867;HTU21D;58487;53.474;49.470;2023-11-22T03:46:56;-4.32;118.99
70867;HTU21D;58487;53.474;49.470;2023-11-22T03:49:22;-4.31;118.99
70867;HTU21D;58487;53.474;49.470;2023-11-22T03:51:48;-4.44;118.99
70867;HTU21D;58487;53.474;49.470;2023-11-22T03:54:15;-4.63;118.99
70867;HTU21D;58487;53.474;49.470;2023-11-22T03:56:41;-4.61;118.99
70867;HTU21D;58487;53.474;49.470;2023-11-22T03:59:07;-4.74;118.99
70867;HTU21D;58487;53.474;49.470;2023-11-22T04:01:33;-4.45;118.99
70867;HTU21D;58487;53.474;49.470;2023-11-22T04:03:59;-4.61;118.99
70867;HTU21D;58487;53.474;49.470;2023-11-22T04:06:26;-4.81;118.99
70867;HTU21D;58487;53.474;49.470;2023-11-22T04:08:52;-4.73;118.99
70867;HTU21D;58487;53.474;49.470;2023-11-22T04:11:19;-4.37;118.99
70867;HTU21D;58487;53.474;49.470;2023-11-22T04:13:45;-4.60;118.99
70867;HTU21D;58487;53.474;49.470;2023-11-22T04:16:12;-4.63;118.99
70867;HTU21D;58487;53.474;49.470;2023-11-22T04:18:39;-4.74;118.99
70867;HTU21D;58487;53.474;49.470;2023-11-22T04:21:07;-4.56;118.99
70867;HTU21D;58487;53.474;49.470;2023-11-22T04:23:33;-4.58;97.74
70867;HTU21D;58487;53.474;49.470;2023-11-22T04:26:00;-4.50;118.99
70867;HTU21D;58487;53.474;49.470;2023-11-22T04:28:27;-4.56;118.99
70867;HTU21D;58487;53.474;49.470;2023-11-22T04:30:54;-4.44;118.99
70867;HTU21D;58487;53.474;49.470;2023-11-22T04:33:20;-4.67;118.99
70867;HTU21D;58487;53.474;49.470;2023-11-22T04:35:51;-4.31;102.18
70867;HTU21D;58487;53.474;49.470;2023-11-22T04:38:17;-4.76;118.99
70867;HTU21D;58487;53.474;49.470;2023-11-22T04:40:44;-4.71;118.99
70867;HTU21D;58487;53.474;49.470;2023-11-22T04:43:10;-4.69;103.91
70867;HTU21D;58487;53.474;49.470;2023-11-22T04:45:37;-4.68;110.26
70867;HTU21D;58487;53.474;49.470;2023-11-22T04:48:04;-4.41;118.99
70867;HTU21D;58487;53.474;49.470;2023-11-22T04:50:30;-4.53;118.99
70867;HTU21D;58487;53.474;49.470;2023-11-22T04:52:57;-4.70;118.99
70867;HTU21D;58487;53.474;49.470;2023-11-22T04:55:23;-4.65;118.99
70867;HTU21D;58487;53.474;49.470;2023-11-22T04:57:50;-4.42;118.99
70867;HTU21D;58487;53.474;49.470;2023-11-22T05:00:16;-4.26;118.99
70867;HTU21D;58487;53.474;49.470;2023-11-22T05:02:43;-4.29;85.80
70867;HTU21D;58487;53.474;49.470;2023-11-22T05:05:09;-4.55;118.99
70867;HTU21D;58487;53.474;49.470;2023-11-22T05:07:38;-4.64;118.99
70867;HTU21D;58487;53.474;49.470;2023-11-22T05:10:05;-4.35;118.99
70867;HTU21D;58487;53.474;49.470;2023-11-22T05:12:34;-4.26;118.99
70867;HTU21D;58487;53.474;49.470;2023-11-22T05:15:00;-4.14;88.19
70867;HTU21D;58487;53.474;49.470;2023-11-22T05:17:27;-4.14;118.99
70867;HTU21D;58487;53.474;49.470;2023-11-22T05:19:53;-4.22;118.99
70867;HTU21D;58487;53.474;49.470;2023-11-22T05:22:19;-4.30;93.20
70867;HTU21D;58487;53.474;49.470;2023-11-22T05:24:49;-4.20;97.87
70867;HTU21D;58487;53.474;49.470;2023-11-22T05:27:15;-4.52;118.99
70867;HTU21D;58487;53.474;49.470;2023-11-22T05:29:41;-4.28;118.99
70867;HTU21D;58487;53.474;49.470;2023-11-22T05:32:08;-4.60;118.99
70867;HTU21D;58487;53.474;49.470;2023-11-22T05:34:34;-4.32;118.99
70867;HTU21D;58487;53.474;49.470;2023-11-22T05:37:01;-4.21;118.99
70867;HTU21D;58487;53.474;49.470;2023-11-22T05:39:27;-4.50;118.99
70867;HTU21D;58487;53.474;49.470;2023-11-22T05:41:53;-4.70;118.99
70867;HTU21D;58487;53.474;49.470;2023-11-22T05:44:20;-4.84;98.91
70867;HTU21D;58487;53.474;49.470;2023-11-22T05:46:46;-4.31;118.99
70867;HTU21D;58487;53.474;49.470;2023-11-22T05:49:12;-4.44;118.99
70867;HTU21D;58487;53.474;49.470;2023-11-22T05:51:38;-4.60;99.24
70867;HTU21D;58487;53.474;49.470;2023-11-22T05:54:04;-4.55;85.36
70867;HTU21D;58487;53.474;49.470;2023-11-22T05:56:30;-4.63;90.53
70867;HTU21D;58487;53.474;49.470;2023-11-22T05:58:57;-4.67;104.03
70867;HTU21D;58487;53.474;49.470;2023-11-22T06:01:23;-4.68;118.99
70867;HTU21D;58487;53.474;49.470;2023-11-22T06:03:49;-4.69;118.99
70867;HTU21D;58487;53.474;49.470;2023-11-22T06:06:15;-4.64;104.93
70867;HTU21D;58487;53.474;49.470;2023-11-22T06:08:41;-4.83;118.99
70867;HTU21D;58487;53.474;49.470;2023-11-22T06:11:08;-4.59;118.99
70867;HTU21D;58487;53.474;49.470;2023-11-22T06:13:34;-4.69;118.99
70867;HTU21D;58487;53.474;49.470;2023-11-22T06:16:00;-4.74;108.27
70867;HTU21D;58487;53.474;49.470;2023-11-22T06:18:26;-4.67;118.99
70867;HTU21D;58487;53.474;49.470;2023-11-22T06:20:56;-4.67;118.12
70867;HTU21D;58487;53.474;49.470;2023-11-22T06:23:22;-4.76;106.89
70867;HTU21D;58487;53.474;49.470;2023-11-22T06:25:48;-4.80;103.60
70867;HTU21D;58487;53.474;49.470;2023-11-22T06:28:15;-4.84;118.99
70867;HTU21D;58487;53.474;49.470;2023-11-22T06:30:41;-4.83;84.79
70867;HTU21D;58487;53.474;49.470;2023-11-22T06:33:07;-4.53;118.99
70867;HTU21D;58487;53.474;49.470;2023-11-22T06:35:33;-5.05;86.14
70867;HTU21D;58487;53.474;49.470;2023-11-22T06:38:00;-5.00;118.99
70867;HTU21D;58487;53.474;49.470;2023-11-22T06:40:26;-4.42;118.99
70867;HTU21D;58487;53.474;49.470;2023-11-22T06:42:52;-4.61;118.99
70867;HTU21D;58487;53.474;49.470;2023-11-22T06:45:18;-4.48;98.48
70867;HTU21D;58487;53.474;49.470;2023-11-22T06:47:45;-4.68;118.99
70867;HTU21D;58487;53.474;49.470;2023-11-22T06:50:11;-4.43;118.99
70867;HTU21D;58487;53.474;49.470;2023-11-22T06:52:39;-4.81;111.19
70867;HTU21D;58487;53.474;49.470;2023-11-22T06:55:06;-4.46;83.90
70867;HTU21D;58487;53.474;49.470;2023-11-22T06:57:35;-4.59;92.25
70867;HTU21D;58487;53.474;49.470;2023-11-22T07:00:03;-4.53;97.65
70867;HTU21D;58487;53.474;49.470;2023-11-22T07:02:36;-4.72;102.63
70867;HTU21D;58487;53.474;49.470;2023-11-22T07:05:03;-4.52;84.90
70867;HTU21D;58487;53.474;49.470;2023-11-22T07:07:29;-4.57;82.72
70867;HTU21D;58487;53.474;49.470;2023-11-22T07:09:56;-4.59;89.10
70867;HTU21D;58487;53.474;49.470;2023-11-22T07:12:25;-4.71;116.10
70867;HTU21D;58487;53.474;49.470;2023-11-22T07:14:53;-4.79;108.14
70867;HTU21D;58487;53.474;49.470;2023-11-22T07:17:19;-4.80;118.99
70867;HTU21D;58487;53.474;49.470;2023-11-22T07:19:45;-4.68;109.94
70867;HTU21D;58487;53.474;49.470;2023-11-22T07:22:15;-4.71;96.77
70867;HTU21D;58487;53.474;49.470;2023-11-22T07:24:48;-4.46;92.94
70867;HTU21D;58487;53.474;49.470;2023-11-22T07:27:20;-4.49;117.66
70867;HTU21D;58487;53.474;49.470;2023-11-22T07:29:46;-4.48;118.99
70867;HTU21D;58487;53.474;49.470;2023-11-22T07:32:13;-4.84;118.99
70867;HTU21D;58487;53.474;49.470;2023-11-22T07:34:40;-4.49;97.53
70867;HTU21D;58487;53.474;49.470;2023-11-22T07:37:07;-4.52;83.06
70867;HTU21D;58487;53.474;49.470;2023-11-22T07:39:37;-4.44;118.99
70867;HTU21D;58487;53.474;49.470;2023-11-22T07:42:05;-4.41;118.99
70867;HTU21D;58487;53.474;49.470;2023-11-22T07:44:34;-4.97;118.99
70867;HTU21D;58487;53.474;49.470;2023-11-22T07:47:02;-4.60;99.85
70867;HTU21D;58487;53.474;49.470;2023-11-22T07:49:28;-4.61;89.90
70867;HTU21D;58487;53.474;49.470;2023-11-22T07:51:55;-4.56;91.01
70867;HTU21D;58487;53.474;49.470;2023-11-22T07:54:22;-4.67;118.99
70867;HTU21D;58487;53.474;49.470;2023-11-22T07:56:49;-4.58;118.99
70867;HTU21D;58487;53.474;49.470;2023-11-22T07:59:15;-4.74;118.99
70867;HTU21D;58487;53.474;49.470;2023-11-22T08:01:43;-4.71;98.55
70867;HTU21D;58487;53.474;49.470;2023-11-22T08:04:14;-4.66;111.95
70867;HTU21D;58487;53.474;49.470;2023-11-22T08:06:41;-4.87;88.06
70867;HTU21D;58487;53.474;49.470;2023-11-22T08:09:07;-4.55;83.16
70867;HTU21D;58487;53.474;49.470;2023-11-22T08:11:36;-4.42;82.01
70867;HTU21D;58487;53.474;49.470;2023-11-22T08:14:03;-4.35;81.11
70867;HTU21D;58487;53.474;49.470;2023-11-22T08:16:30;-4.45;80.54
70867;HTU21D;58487;53.474;49.470;2023-11-22T08:18:56;-4.40;80.95
70867;HTU21D;58487;53.474;49.470;2023-11-22T08:21:23;-4.51;80.68
70867;HTU21D;58487;53.474;49.470;2023-11-22T08:23:49;-4.53;81.88
70867;HTU21D;58487;53.474;49.470;2023-11-22T08:26:16;-4.52;118.99
70867;HTU21D;58487;53.474;49.470;2023-11-22T08:28:42;-4.73;99.93
70867;HTU21D;58487;53.474;49.470;2023-11-22T08:31:09;-4.73;97.06
70867;HTU21D;58487;53.474;49.470;2023-11-22T08:33:39;-4.66;99.28
70867;HTU21D;58487;53.474;49.470;2023-11-22T08:36:06;-4.60;109.11
70867;HTU21D;58487;53.474;49.470;2023-11-22T08:38:36;-4.69;118.99
70867;HTU21D;58487;53.474;49.470;2023-11-22T08:41:07;-4.76;109.40
70867;HTU21D;58487;53.474;49.470;2023-11-22T08:43:34;-4.80;118.64
70867;HTU21D;58487;53.474;49.470;2023-11-22T08:46:01;-4.96;118.99
70867;HTU21D;58487;53.474;49.470;2023-11-22T08:48:31;-5.05;118.99
70867;HTU21D;58487;53.474;49.470;2023-11-22T08:50:57;-4.91;118.99
70867;HTU21D;58487;53.474;49.470;2023-11-22T08:53:24;-4.91;118.99
70867;HTU21D;58487;53.474;49.470;2023-11-22T08:55:50;-5.09;118.99
70867;HTU21D;58487;53.474;49.470;2023-11-22T08:58:16;-5.04;118.99
70867;HTU21D;58487;53.474;49.470;2023-11-22T09:00:42;-5.15;118.99
70867;HTU21D;58487;53.474;49.470;2023-11-22T09:03:11;-5.09;118.99
70867;HTU21D;58487;53.474;49.470;2023-11-22T09:05:42;-5.26;118.99
70867;HTU21D;58487;53.474;49.470;2023-11-22T09:08:09;-5.09;118.99
70867;HTU21D;58487;53.474;49.470;2023-11-22T09:10:41;-5.02;118.99
70867;HTU21D;58487;53.474;49.470;2023-11-22T09:13:11;-5.04;118.99
70867;HTU21D;58487;53.474;49.470;2023-11-22T09:15:38;-4.90;94.11
70867;HTU21D;58487;53.474;49.470;2023-11-22T09:18:04;-4.80;80.57
70867;HTU21D;58487;53.474;49.470;2023-11-22T09:20:31;-4.87;80.25
70867;HTU21D;58487;53.474;49.470;2023-11-22T09:22:57;-4.85;80.13
70867;HTU21D;58487;53.474;49.470;2023-11-22T09:25:24;-4.90;80.20
70867;HTU21D;58487;53.474;49.470;2023-11-22T09:27:55;-4.88;79.69
70867;HTU21D;58487;53.474;49.470;2023-11-22T09:30:30;-4.89;80.28
70867;HTU21D;58487;53.474;49.470;2023-11-22T09:33:12;-4.82;80.40
70867;HTU21D;58487;53.474;49.470;2023-11-22T09:35:40;-4.85;81.13
70867;HTU21D;58487;53.474;49.470;2023-11-22T09:38:09;-4.81;79.67
70867;HTU21D;58487;53.474;49.470;2023-11-22T09:40:45;-4.96;80.09
70867;HTU21D;58487;53.474;49.470;2023-11-22T09:43:13;-4.87;79.79
70867;HTU21D;58487;53.474;49.470;2023-11-22T09:45:44;-4.96;80.38
70867;HTU21D;58487;53.474;49.470;2023-11-22T09:48:20;-5.04;80.67
70867;HTU21D;58487;53.474;49.470;2023-11-22T09:55:59;-5.10;81.33
70867;HTU21D;58487;53.474;49.470;2023-11-22T09:58:31;-5.29;80.57
70867;HTU21D;58487;53.474;49.470;2023-11-22T10:01:01;-5.18;85.35
70867;HTU21D;58487;53.474;49.470;2023-11-22T10:03:27;-5.25;81.94
70867;HTU21D;58487;53.474;49.470;2023-11-22T10:05:57;-5.25;81.62
70867;HTU21D;58487;53.474;49.470;2023-11-22T10:08:27;-5.17;80.62
70867;HTU21D;58487;53.474;49.470;2023-11-22T10:10:55;-5.23;80.81
70867;HTU21D;58487;53.474;49.470;2023-11-22T10:13:22;-5.27;81.30
70867;HTU21D;58487;53.474;49.470;2023-11-22T10:15:52;-5.34;80.73
70867;HTU21D;58487;53.474;49.470;2023-11-22T10:18:19;-5.37;81.52
70867;HTU21D;58487;53.474;49.470;2023-11-22T10:20:46;-5.34;83.13
70867;HTU21D;58487;53.474;49.470;2023-11-22T10:23:14;-5.39;81.62
70867;HTU21D;58487;53.474;49.470;2023-11-22T10:25:51;-5.41;82.01
70867;HTU21D;58487;53.474;49.470;2023-11-22T10:28:18;-5.44;81.49
70867;HTU21D;58487;53.474;49.470;2023-11-22T10:30:49;-5.43;81.73
70867;HTU21D;58487;53.474;49.470;2023-11-22T10:33:18;-5.49;81.84
70867;HTU21D;58487;53.474;49.470;2023-11-22T10:35:49;-5.48;81.68
70867;HTU21D;58487;53.474;49.470;2023-11-22T10:38:16;-5.48;81.50
70867;HTU21D;58487;53.474;49.470;2023-11-22T10:40:42;-5.45;84.99
70867;HTU21D;58487;53.474;49.470;2023-11-22T10:43:17;-5.48;82.90
70867;HTU21D;58487;53.474;49.470;2023-11-22T10:45:44;-5.60;82.55
70867;HTU21D;58487;53.474;49.470;2023-11-22T10:48:17;-5.58;90.72
70867;HTU21D;58487;53.474;49.470;2023-11-22T10:50:44;-5.59;84.08
70867;HTU21D;58487;53.474;49.470;2023-11-22T10:53:12;-5.54;82.39
70867;HTU21D;58487;53.474;49.470;2023-11-22T10:55:44;-5.57;91.31
70867;HTU21D;58487;53.474;49.470;2023-11-22T10:58:14;-5.62;84.41
70867;HTU21D;58487;53.474;49.470;2023-11-22T11:00:42;-5.61;82.15
70867;HTU21D;58487;53.474;49.470;2023-11-22T11:03:14;-5.67;82.81
70867;HTU21D;58487;53.474;49.470;2023-11-22T11:05:55;-5.79;83.26
70867;HTU21D;58487;53.474;49.470;2023-11-22T11:08:25;-5.85;82.47
70867;HTU21D;58487;53.474;49.470;2023-11-22T11:10:53;-5.83;82.57
70867;HTU21D;58487;53.474;49.470;2023-11-22T11:13:21;-5.85;82.92
70867;HTU21D;58487;53.474;49.470;2023-11-22T11:15:49;-5.94;83.48
70867;HTU21D;58487;53.474;49.470;2023-11-22T11:18:17;-5.92;82.26
70867;HTU21D;58487;53.474;49.470;2023-11-22T11:20:57;-5.93;82.10
70867;HTU21D;58487;53.474;49.470;2023-11-22T11:23:27;-5.88;82.36
70867;HTU21D;58487;53.474;49.470;2023-11-22T11:25:55;-5.91;82.68
70867;HTU21D;58487;53.474;49.470;2023-11-22T11:28:25;-5.97;82.81
70867;HTU21D;58487;53.474;49.470;2023-11-22T11:30:53;-5.93;83.80
70867;HTU21D;58487;53.474;49.470;2023-11-22T11:33:26;-5.89;83.27
70867;HTU21D;58487;53.474;49.470;2023-11-22T11:36:00;-5.86;84.56
70867;HTU21D;58487;53.474;49.470;2023-11-22T11:38:35;-5.82;88.57
70867;HTU21D;58487;53.474;49.470;2023-11-22T11:41:11;-5.81;91.31
70867;HTU21D;58487;53.474;49.470;2023-11-22T11:43:45;-5.75;84.98
70867;HTU21D;58487;53.474;49.470;2023-11-22T11:46:13;-5.74;81.92
70867;HTU21D;58487;53.474;49.470;2023-11-22T11:48:52;-5.77;81.50
70867;HTU21D;58487;53.474;49.470;2023-11-22T11:51:24;-5.76;81.12
70867;HTU21D;58487;53.474;49.470;2023-11-22T11:53:51;-5.81;81.03
70867;HTU21D;58487;53.474;49.470;2023-11-22T11:56:17;-5.88;81.68
70867;HTU21D;58487;53.474;49.470;2023-11-22T11:58:48;-5.84;81.65
70867;HTU21D;58487;53.474;49.470;2023-11-22T12:01:18;-5.77;81.78
70867;HTU21D;58487;53.474;49.470;2023-11-22T12:03:49;-5.76;81.43
70867;HTU21D;58487;53.474;49.470;2023-11-22T12:06:16;-5.85;82.13
70867;HTU21D;58487;53.474;49.470;2023-11-22T12:08:45;-5.83;82.44
70867;HTU21D;58487;53.474;49.470;2023-11-22T12:11:13;-5.85;82.45
70867;HTU21D;58487;53.474;49.470;2023-11-22T12:13:41;-5.82;82.07
70867;HTU21D;58487;53.474;49.470;2023-11-22T12:16:14;-5.84;82.18
70867;HTU21D;58487;53.474;49.470;2023-11-22T12:18:42;-5.94;81.75
70867;HTU21D;58487;53.474;49.470;2023-11-22T12:21:11;-5.94;81.57
70867;HTU21D;58487;53.474;49.470;2023-11-22T12:23:39;-5.99;81.04
70867;HTU21D;58487;53.474;49.470;2023-11-22T12:26:13;-6.05;82.03
70867;HTU21D;58487;53.474;49.470;2023-11-22T12:28:47;-6.09;81.01
70867;HTU21D;58487;53.474;49.470;2023-11-22T12:31:14;-6.14;81.95
70867;HTU21D;58487;53.474;49.470;2023-11-22T12:33:42;-6.17;81.94
70867;HTU21D;58487;53.474;49.470;2023-11-22T12:36:09;-6.21;87.59
70867;HTU21D;58487;53.474;49.470;2023-11-22T12:38:36;-6.31;88.79
70867;HTU21D;58487;53.474;49.470;2023-11-22T12:41:03;-6.24;82.05
70867;HTU21D;58487;53.474;49.470;2023-11-22T12:43:31;-6.26;83.74
70867;HTU21D;58487;53.474;49.470;2023-11-22T12:46:05;-6.21;82.48
70867;HTU21D;58487;53.474;49.470;2023-11-22T12:48:42;-6.34;85.38
70867;HTU21D;58487;53.474;49.470;2023-11-22T12:51:15;-6.29;84.13
70867;HTU21D;58487;53.474;49.470;2023-11-22T12:53:52;-6.43;83.57
70867;HTU21D;58487;53.474;49.470;2023-11-22T12:56:21;-6.32;82.24
70867;HTU21D;58487;53.474;49.470;2023-11-22T12:58:47;-6.33;86.61
70867;HTU21D;58487;53.474;49.470;2023-11-22T13:01:13;-6.39;82.25
70867;HTU21D;58487;53.474;49.470;2023-11-22T13:03:40;-6.32;81.62
70867;HTU21D;58487;53.474;49.470;2023-11-22T13:06:07;-6.41;83.13
70867;HTU21D;58487;53.474;49.470;2023-11-22T13:08:33;-6.44;83.17
70867;HTU21D;58487;53.474;49.470;2023-11-22T13:11:00;-6.45;83.92
70867;HTU21D;58487;53.474;49.470;2023-11-22T13:13:27;-6.42;85.55
70867;HTU21D;58487;53.474;49.470;2023-11-22T13:15:53;-6.41;84.26
70867;HTU21D;58487;53.474;49.470;2023-11-22T13:18:20;-6.46;85.41
70867;HTU21D;58487;53.474;49.470;2023-11-22T13:20:47;-6.44;82.98
70867;HTU21D;58487;53.474;49.470;2023-11-22T13:23:13;-6.53;83.97
70867;HTU21D;58487;53.474;49.470;2023-11-22T13:25:40;-6.55;84.23
70867;HTU21D;58487;53.474;49.470;2023-11-22T13:28:07;-6.59;82.04
70867;HTU21D;58487;53.474;49.470;2023-11-22T13:30:34;-6.60;81.54
70867;HTU21D;58487;53.474;49.470;2023-11-22T13:33:00;-6.66;84.74
70867;HTU21D;58487;53.474;49.470;2023-11-22T13:35:28;-6.75;91.34
70867;HTU21D;58487;53.474;49.470;2023-11-22T13:37:58;-6.86;118.99
70867;HTU21D;58487;53.474;49.470;2023-11-22T13:40:25;-6.95;118.99
70867;HTU21D;58487;53.474;49.470;2023-11-22T13:42:56;-7.04;118.99
70867;HTU21D;58487;53.474;49.470;2023-11-22T13:45:22;-7.19;118.99
70867;HTU21D;58487;53.474;49.470;2023-11-22T13:50:17;-7.15;118.99
70867;HTU21D;58487;53.474;49.470;2023-11-22T13:52:54;-7.09;118.99
70867;HTU21D;58487;53.474;49.470;2023-11-22T13:55:20;-7.11;118.99
70867;HTU21D;58487;53.474;49.470;2023-11-22T13:57:54;-7.15;118.99
70867;HTU21D;58487;53.474;49.470;2023-11-22T14:00:22;-7.18;118.99
70867;HTU21D;58487;53.474;49.470;2023-11-22T14:02:51;-7.25;118.99
70867;HTU21D;58487;53.474;49.470;2023-11-22T14:05:19;-7.20;118.99
70867;HTU21D;58487;53.474;49.470;2023-11-22T14:07:45;-7.29;118.99
70867;HTU21D;58487;53.474;49.470;2023-11-22T14:10:12;-7.25;118.99
70867;HTU21D;58487;53.474;49.470;2023-11-22T14:12:43;-7.20;118.99
70867;HTU21D;58487;53.474;49.470;2023-11-22T14:15:11;-7.27;118.99
70867;HTU21D;58487;53.474;49.470;2023-11-22T14:17:37;-7.17;118.99
70867;HTU21D;58487;53.474;49.470;2023-11-22T14:20:06;-7.22;118.99
70867;HTU21D;58487;53.474;49.470;2023-11-22T14:22:35;-7.34;118.99
70867;HTU21D;58487;53.474;49.470;2023-11-22T14:25:02;-7.33;118.99
70867;HTU21D;58487;53.474;49.470;2023-11-22T14:27:28;-7.36;118.99
70867;HTU21D;58487;53.474;49.470;2023-11-22T14:29:57;-7.30;118.99
70867;HTU21D;58487;53.474;49.470;2023-11-22T14:32:23;-7.25;118.99
70867;HTU21D;58487;53.474;49.470;2023-11-22T14:34:50;-7.18;118.99
70867;HTU21D;58487;53.474;49.470;2023-11-22T14:37:17;-7.09;118.99
70867;HTU21D;58487;53.474;49.470;2023-11-22T14:39:43;-7.25;118.99
70867;HTU21D;58487;53.474;49.470;2023-11-22T14:42:10;-7.16;118.99
70867;HTU21D;58487;53.474;49.470;2023-11-22T14:44:37;-7.23;118.99
70867;HTU21D;58487;53.474;49.470;2023-11-22T14:47:03;-7.24;118.99
70867;HTU21D;58487;53.474;49.470;2023-11-22T14:49:39;-7.22;118.99
70867;HTU21D;58487;53.474;49.470;2023-11-22T14:52:05;-7.19;118.99
70867;HTU21D;58487;53.474;49.470;2023-11-22T14:54:31;-7.11;118.99
70867;HTU21D;58487;53.474;49.470;2023-11-22T14:56:57;-7.11;118.99
70867;HTU21D;58487;53.474;49.470;2023-11-22T14:59:28;-7.11;118.99
70867;HTU21D;58487;53.474;49.470;2023-11-22T15:01:58;-7.13;118.99
70867;HTU21D;58487;53.474;49.470;2023-11-22T15:04:26;-7.12;118.99